createdAt,value
2019-05-06T00:00:24.995Z,2.17
2019-05-06T00:03:29.639Z,1.70
2019-05-06T00:06:34.608Z,1.67
2019-05-06T00:09:39.404Z,1.30
2019-05-06T00:12:44.485Z,1.60
2019-05-06T00:15:49.214Z,1.70
2019-05-06T00:18:54.013Z,1.50
2019-05-06T00:21:58.580Z,1.77
2019-05-06T00:25:09.304Z,1.70
2019-05-06T00:28:27.753Z,1.70
2019-05-06T00:31:34.369Z,1.67
2019-05-06T00:34:38.120Z,1.90
2019-05-06T00:37:44.186Z,1.40
2019-05-06T00:40:49.944Z,1.40
2019-05-06T00:43:54.702Z,1.97
2019-05-06T00:46:59.180Z,1.40
2019-05-06T00:50:04.249Z,1.33
2019-05-06T00:53:10.787Z,1.60
2019-05-06T00:56:15.059Z,1.47
2019-05-06T00:59:19.413Z,1.30
2019-05-06T01:02:23.762Z,1.27
2019-05-06T01:05:28.150Z,1.50
2019-05-06T01:08:34.670Z,1.33
2019-05-06T01:11:38.624Z,1.10
2019-05-06T01:14:46.836Z,1.00
2019-05-06T01:17:51.215Z,1.60
2019-05-06T01:21:10.092Z,1.70
2019-05-06T01:24:14.793Z,1.47
2019-05-06T01:27:19.147Z,1.27
2019-05-06T01:30:24.824Z,1.10
2019-05-06T01:33:29.079Z,1.60
2019-05-06T01:36:34.323Z,2.13
2019-05-06T01:39:50.061Z,1.50
2019-05-06T01:42:59.689Z,1.60
2019-05-06T01:46:04.714Z,2.07
2019-05-06T01:49:09.100Z,2.53
2019-05-06T01:52:14.653Z,2.43
2019-05-06T01:55:19.099Z,2.37
2019-05-06T01:58:24.294Z,2.60
2019-05-06T02:01:28.728Z,2.90
2019-05-06T02:04:33.725Z,3.10
2019-05-06T02:07:38.296Z,3.43
2019-05-06T02:10:43.581Z,3.27
2019-05-06T02:13:48.031Z,3.10
2019-05-06T02:16:54.322Z,3.10
2019-05-06T02:19:58.395Z,2.87
2019-05-06T02:23:09.047Z,3.30
2019-05-06T02:26:14.173Z,2.93
2019-05-06T02:29:20.196Z,3.67
2019-05-06T02:32:46.556Z,3.90
2019-05-06T02:36:25.577Z,2.90
2019-05-06T02:39:28.185Z,3.53
2019-05-06T02:42:33.637Z,3.43
2019-05-06T02:45:38.271Z,4.33
2019-05-06T02:49:16.994Z,5.60
2019-05-06T02:52:22.862Z,6.07
2019-05-06T02:55:27.379Z,6.63
2019-05-06T02:58:33.025Z,5.80
2019-05-06T03:01:37.556Z,4.50
2019-05-06T03:04:43.761Z,3.37
2019-05-06T03:07:48.065Z,3.83
2019-05-06T03:10:53.437Z,3.20
2019-05-06T03:13:59.268Z,3.20
2019-05-06T03:17:03.973Z,3.43
2019-05-06T03:20:13.220Z,3.07
2019-05-06T03:23:19.243Z,3.20
2019-05-06T03:26:23.688Z,3.40
2019-05-06T03:29:28.101Z,2.60
2019-05-06T03:32:41.151Z,2.63
2019-05-06T03:35:56.302Z,3.07
2019-05-06T03:38:44.379Z,2.60
2019-05-06T03:41:48.944Z,3.07
2019-05-06T03:44:58.138Z,2.63
2019-05-06T03:48:09.388Z,2.67
2019-05-06T03:51:13.836Z,2.73
2019-05-06T03:54:19.603Z,2.50
2019-05-06T03:57:25.355Z,2.30
2019-05-06T04:00:29.696Z,2.83
2019-05-06T04:03:46.799Z,2.60
2019-05-06T04:06:40.203Z,2.20
2019-05-06T04:09:44.558Z,2.23
2019-05-06T04:12:53.573Z,2.50
2019-05-06T04:16:23.059Z,2.57
2019-05-06T04:19:35.874Z,2.10
2019-05-06T04:22:53.098Z,2.40
2019-05-06T04:26:15.536Z,2.43
2019-05-06T04:29:20.095Z,2.67
2019-05-06T04:32:24.570Z,2.70
2019-05-06T04:35:33.575Z,2.30
2019-05-06T04:38:36.889Z,2.47
2019-05-06T04:41:43.305Z,2.67
2019-05-06T04:44:47.290Z,2.60
2019-05-06T04:47:53.833Z,2.63
2019-05-06T04:50:57.781Z,2.70
2019-05-06T04:54:04.227Z,2.87
2019-05-06T04:57:08.157Z,2.97
2019-05-06T05:00:13.146Z,2.33
2019-05-06T05:03:17.712Z,2.23
2019-05-06T05:06:23.146Z,3.10
2019-05-06T05:09:28.413Z,2.77
2019-05-06T05:12:42.686Z,2.70
2019-05-06T05:15:54.083Z,3.63
2019-05-06T05:19:02.767Z,3.10
2019-05-06T05:22:07.227Z,2.70
2019-05-06T05:25:12.266Z,4.23
2019-05-06T05:28:16.843Z,4.20
2019-05-06T05:31:23.035Z,4.13
2019-05-06T05:34:38.034Z,3.47
2019-05-06T05:37:33.526Z,4.27
2019-05-06T05:40:37.959Z,2.90
2019-05-06T05:43:53.895Z,2.83
2019-05-06T05:46:58.322Z,3.70
2019-05-06T05:50:09.742Z,4.17
2019-05-06T05:53:14.203Z,3.87
2019-05-06T05:56:19.177Z,3.50
2019-05-06T05:59:23.580Z,3.40
2019-05-06T06:02:27.882Z,2.37
2019-05-06T06:05:32.954Z,3.20
2019-05-06T06:08:37.781Z,3.53
2019-05-06T06:12:02.964Z,3.00
2019-05-06T06:15:19.691Z,2.70
2019-05-06T06:18:45.833Z,2.70
2019-05-06T06:21:57.971Z,2.57
2019-05-06T06:25:04.086Z,1.83
2019-05-06T06:28:08.335Z,2.30
2019-05-06T06:31:24.385Z,2.20
2019-05-06T06:34:40.126Z,1.70
2019-05-06T06:37:56.715Z,1.87
2019-05-06T06:41:02.725Z,2.10
2019-05-06T06:44:13.094Z,1.77
2019-05-06T06:47:16.827Z,1.60
2019-05-06T06:50:22.056Z,1.60
2019-05-06T06:53:26.575Z,2.40
2019-05-06T06:57:05.199Z,2.17
2019-05-06T07:00:12.364Z,2.03
2019-05-06T07:03:21.844Z,1.80
2019-05-06T07:06:42.188Z,1.50
2019-05-06T07:09:46.288Z,1.67
2019-05-06T07:12:50.623Z,1.70
2019-05-06T07:15:55.023Z,1.73
2019-05-06T07:18:59.306Z,2.03
2019-05-06T07:22:06.684Z,2.00
2019-05-06T07:25:09.974Z,1.70
2019-05-06T07:28:14.364Z,1.60
2019-05-06T07:31:23.842Z,1.77
2019-05-06T07:34:25.089Z,1.93
2019-05-06T07:37:29.500Z,2.10
2019-05-06T07:40:33.858Z,1.60
2019-05-06T07:43:52.522Z,1.60
2019-05-06T07:47:03.588Z,1.70
2019-05-06T07:50:08.393Z,1.67
2019-05-06T07:53:13.475Z,1.40
2019-05-06T07:56:17.843Z,1.40
2019-05-06T07:59:22.709Z,1.13
2019-05-06T08:02:27.175Z,1.47
2019-05-06T08:05:32.350Z,1.63
2019-05-06T08:08:37.027Z,1.80
2019-05-06T08:11:42.259Z,1.40
2019-05-06T08:14:48.053Z,1.60
2019-05-06T08:17:53.053Z,2.13
2019-05-06T08:20:59.017Z,1.30
2019-05-06T08:24:03.409Z,1.43
2019-05-06T08:27:07.808Z,1.27
2019-05-06T08:30:13.039Z,2.00
2019-05-06T08:33:17.629Z,2.37
2019-05-06T08:36:40.047Z,2.50
2019-05-06T08:39:46.215Z,1.87
2019-05-06T08:42:53.052Z,1.83
2019-05-06T08:45:58.613Z,1.90
2019-05-06T08:49:03.297Z,2.27
2019-05-06T08:52:12.982Z,2.20
2019-05-06T08:55:26.045Z,1.80
2019-05-06T08:58:46.312Z,1.60
2019-05-06T09:01:53.456Z,1.33
2019-05-06T09:04:57.972Z,1.37
2019-05-06T09:08:03.675Z,1.67
2019-05-06T09:11:08.401Z,1.40
2019-05-06T09:14:13.965Z,1.57
2019-05-06T09:17:18.483Z,1.83
2019-05-06T09:20:23.375Z,1.50
2019-05-06T09:23:27.842Z,1.20
2019-05-06T09:26:43.803Z,1.20
2019-05-06T09:29:53.637Z,3.13
2019-05-06T09:32:57.957Z,2.80
2019-05-06T09:36:03.300Z,1.67
2019-05-06T09:39:09.561Z,1.53
2019-05-06T09:42:14.232Z,1.93
2019-05-06T09:45:18.794Z,1.50
2019-05-06T09:48:48.253Z,1.37
2019-05-06T09:51:52.984Z,1.50
2019-05-06T09:55:07.602Z,1.40
2019-05-06T09:58:12.362Z,1.63
2019-05-06T10:01:17.296Z,1.97
2019-05-06T10:04:21.760Z,1.93
2019-05-06T10:07:27.935Z,1.70
2019-05-06T10:10:32.881Z,1.80
2019-05-06T10:13:37.323Z,1.70
2019-05-06T10:16:43.095Z,1.73
2019-05-06T10:19:47.781Z,2.57
2019-05-06T10:22:52.509Z,2.73
2019-05-06T10:25:56.964Z,2.63
2019-05-06T10:29:22.256Z,2.40
2019-05-06T10:32:35.310Z,9.27
2019-05-06T10:35:39.834Z,11.60
2019-05-06T10:38:54.727Z,7.10
2019-05-06T10:42:16.208Z,4.87
2019-05-06T10:45:32.452Z,8.30
2019-05-06T10:48:37.058Z,5.13
2019-05-06T10:52:03.428Z,4.47
2019-05-06T10:55:07.824Z,4.03
2019-05-06T10:58:12.807Z,3.43
2019-05-06T11:01:23.160Z,4.03
2019-05-06T11:04:27.638Z,3.83
2019-05-06T11:07:34.983Z,3.67
2019-05-06T11:10:41.395Z,2.83
2019-05-06T11:13:44.770Z,2.60
2019-05-06T11:16:49.214Z,2.77
2019-05-06T11:19:53.624Z,2.60
2019-05-06T11:22:58.114Z,2.30
2019-05-06T11:26:03.089Z,2.93
2019-05-06T11:29:17.791Z,2.10
2019-05-06T11:32:59.744Z,3.60
2019-05-06T11:36:15.272Z,2.60
2019-05-06T11:39:19.803Z,3.10
2019-05-06T11:42:31.762Z,2.97
2019-05-06T11:45:32.124Z,2.50
2019-05-06T11:48:36.311Z,3.33
2019-05-06T11:51:43.512Z,3.90
2019-05-06T11:54:46.991Z,3.23
2019-05-06T11:57:52.970Z,3.97
2019-05-06T12:00:58.750Z,3.37
2019-05-06T12:04:03.464Z,2.93
2019-05-06T12:07:11.117Z,3.67
2019-05-06T12:10:14.243Z,2.97
2019-05-06T12:13:18.715Z,2.50
2019-05-06T12:16:26.149Z,2.77
2019-05-06T12:19:32.383Z,2.50
2019-05-06T12:22:36.763Z,1.87
2019-05-06T12:25:44.816Z,2.43
2019-05-06T12:28:47.308Z,1.97
2019-05-06T12:32:03.491Z,2.23
2019-05-06T12:35:07.125Z,2.80
2019-05-06T12:38:26.545Z,2.70
2019-05-06T12:41:22.913Z,2.40
2019-05-06T12:44:26.755Z,2.57
2019-05-06T12:47:50.176Z,2.50
2019-05-06T12:50:56.526Z,2.53
2019-05-06T12:54:03.298Z,2.63
2019-05-06T12:57:07.033Z,2.50
2019-05-06T13:00:13.213Z,2.30
2019-05-06T13:03:19.641Z,3.10
2019-05-06T13:06:26.281Z,3.13
2019-05-06T13:09:32.961Z,2.60
2019-05-06T13:12:37.487Z,2.33
2019-05-06T13:15:43.429Z,2.03
2019-05-06T13:18:51.656Z,2.33
2019-05-06T13:21:55.861Z,1.97
2019-05-06T13:25:03.880Z,2.03
2019-05-06T13:28:09.432Z,2.00
2019-05-06T13:31:24.987Z,2.83
2019-05-06T13:34:28.440Z,2.37
2019-05-06T13:37:34.213Z,1.93
2019-05-06T13:40:51.342Z,1.80
2019-05-06T13:43:53.933Z,2.33
2019-05-06T13:46:58.646Z,2.00
2019-05-06T13:50:04.559Z,2.30
2019-05-06T13:53:14.528Z,2.40
2019-05-06T13:56:18.770Z,2.00
2019-05-06T13:59:23.879Z,2.63
2019-05-06T14:02:44.779Z,2.50
2019-05-06T14:05:52.018Z,3.17
2019-05-06T14:08:57.876Z,2.20
2019-05-06T14:12:03.782Z,2.83
2019-05-06T14:15:12.478Z,2.97
2019-05-06T14:18:18.445Z,2.90
2019-05-06T14:21:23.399Z,3.30
2019-05-06T14:24:28.142Z,3.20
2019-05-06T14:27:34.153Z,3.27
2019-05-06T14:30:55.191Z,3.00
2019-05-06T14:34:00.090Z,3.13
2019-05-06T14:37:05.824Z,2.73
2019-05-06T14:40:13.960Z,3.07
2019-05-06T14:43:19.134Z,3.50
2019-05-06T14:46:24.160Z,3.33
2019-05-06T14:49:29.229Z,3.97
2019-05-06T14:52:37.434Z,3.80
2019-05-06T14:55:43.756Z,4.47
2019-05-06T14:59:04.737Z,3.73
2019-05-06T15:02:09.276Z,3.47
2019-05-06T15:05:14.885Z,4.17
2019-05-06T15:08:22.457Z,5.63
2019-05-06T15:11:28.376Z,4.70
2019-05-06T15:14:33.233Z,5.27
2019-05-06T15:17:37.675Z,5.00
2019-05-06T15:20:42.584Z,6.23
2019-05-06T15:23:47.150Z,4.77
2019-05-06T15:26:52.154Z,4.60
2019-05-06T15:29:59.924Z,5.10
2019-05-06T15:33:05.760Z,5.30
2019-05-06T15:36:17.499Z,6.37
2019-05-06T15:39:23.663Z,6.33
2019-05-06T15:42:28.488Z,5.13
2019-05-06T15:45:33.671Z,5.57
2019-05-06T15:48:38.344Z,3.20
2019-05-06T15:51:43.353Z,5.90
2019-05-06T15:54:48.562Z,5.20
2019-05-06T15:57:53.539Z,4.20
2019-05-06T16:00:58.594Z,3.93
2019-05-06T16:04:03.056Z,4.47
2019-05-06T16:07:08.161Z,5.63
2019-05-06T16:10:13.462Z,6.60
2019-05-06T16:13:18.449Z,6.03
2019-05-06T16:16:22.957Z,5.83
2019-05-06T16:19:27.416Z,6.13
2019-05-06T16:22:33.770Z,14.37
2019-05-06T16:25:38.087Z,18.80
2019-05-06T16:28:44.961Z,14.73
2019-05-06T16:31:49.017Z,11.80
2019-05-06T16:34:53.471Z,10.57
2019-05-06T16:37:58.069Z,14.37
2019-05-06T16:41:12.329Z,13.23
2019-05-06T16:44:08.852Z,14.43
2019-05-06T16:47:19.966Z,14.70
2019-05-06T16:50:29.348Z,14.40
2019-05-06T16:53:35.010Z,13.83
2019-05-06T16:56:52.812Z,14.30
2019-05-06T16:59:57.399Z,23.97
2019-05-06T17:03:17.357Z,40.23
2019-05-06T17:06:27.707Z,44.17
2019-05-06T17:09:34.306Z,63.50
2019-05-06T17:12:38.785Z,109.50
2019-05-06T17:15:43.759Z,100.03
2019-05-06T17:18:48.413Z,63.93
2019-05-06T17:21:52.907Z,55.47
2019-05-06T17:24:57.387Z,45.40
2019-05-06T17:28:17.127Z,37.90
2019-05-06T17:31:38.216Z,32.67
2019-05-06T17:34:48.757Z,29.30
2019-05-06T17:38:11.623Z,49.17
2019-05-06T17:41:16.237Z,20.97
2019-05-06T17:44:22.834Z,14.87
2019-05-06T17:47:37.625Z,12.77
2019-05-06T17:50:42.268Z,11.17
2019-05-06T17:53:52.266Z,11.10
2019-05-06T17:56:56.834Z,11.50
2019-05-06T18:00:03.289Z,20.60
2019-05-06T18:03:07.828Z,15.97
2019-05-06T18:06:14.193Z,15.37
2019-05-06T18:09:18.758Z,17.10
2019-05-06T18:12:23.499Z,23.70
2019-05-06T18:15:28.600Z,23.50
2019-05-06T18:18:35.321Z,22.77
2019-05-06T18:21:40.255Z,22.97
2019-05-06T18:24:46.265Z,24.43
2019-05-06T18:27:52.664Z,25.17
2019-05-06T18:30:57.413Z,23.63
2019-05-06T18:34:04.904Z,23.30
2019-05-06T18:37:12.509Z,24.87
2019-05-06T18:40:16.822Z,25.50
2019-05-06T18:43:22.906Z,26.63
2019-05-06T18:46:28.828Z,26.90
2019-05-06T18:49:35.621Z,30.77
2019-05-06T18:52:40.161Z,39.97
2019-05-06T18:55:45.628Z,38.47
2019-05-06T18:58:50.082Z,39.07
2019-05-06T19:01:54.668Z,39.40
2019-05-06T19:05:05.436Z,42.60
2019-05-06T19:08:29.225Z,39.77
2019-05-06T19:11:34.091Z,46.23
2019-05-06T19:14:38.910Z,44.67
2019-05-06T19:17:44.343Z,43.33
2019-05-06T19:20:50.078Z,42.27
2019-05-06T19:23:55.040Z,41.03
2019-05-06T19:27:02.342Z,38.10
2019-05-06T19:30:07.686Z,35.60
2019-05-06T19:33:15.664Z,28.80
2019-05-06T19:36:23.295Z,22.50
2019-05-06T19:39:28.076Z,20.37
2019-05-06T19:42:46.102Z,19.90
2019-05-06T19:45:39.423Z,18.60
2019-05-06T19:48:44.985Z,17.00
2019-05-06T19:51:49.799Z,17.43
2019-05-06T19:54:54.490Z,14.97
2019-05-06T19:57:59.213Z,14.40
2019-05-06T20:01:05.044Z,13.33
2019-05-06T20:04:10.007Z,14.53
2019-05-06T20:07:33.902Z,15.63
2019-05-06T20:11:13.191Z,15.43
2019-05-06T20:14:22.026Z,16.80
2019-05-06T20:17:26.824Z,16.43
2019-05-06T20:20:34.900Z,16.23
2019-05-06T20:23:38.298Z,16.10
2019-05-06T20:26:43.751Z,14.20
2019-05-06T20:29:48.725Z,14.60
2019-05-06T20:32:53.558Z,14.37
2019-05-06T20:36:00.328Z,15.50
2019-05-06T20:39:08.965Z,17.07
2019-05-06T20:42:13.350Z,16.10
2019-05-06T20:45:17.855Z,16.07
2019-05-06T20:48:23.505Z,19.10
2019-05-06T20:51:28.063Z,17.13
2019-05-06T20:54:32.596Z,21.77
2019-05-06T20:57:37.276Z,15.77
2019-05-06T21:00:42.935Z,14.03
2019-05-06T21:03:47.508Z,16.07
2019-05-06T21:06:51.938Z,15.37
2019-05-06T21:09:57.031Z,15.97
2019-05-06T21:13:02.310Z,22.80
2019-05-06T21:16:06.951Z,12.80
2019-05-06T21:19:12.646Z,12.07
2019-05-06T21:22:17.263Z,12.30
2019-05-06T21:25:22.610Z,11.30
2019-05-06T21:28:27.524Z,12.13
2019-05-06T21:31:32.638Z,10.57
2019-05-06T21:34:37.085Z,12.20
2019-05-06T21:37:42.238Z,10.30
2019-05-06T21:40:47.064Z,10.53
2019-05-06T21:43:51.705Z,10.23
2019-05-06T21:46:56.842Z,10.47
2019-05-06T21:50:02.338Z,9.67
2019-05-06T21:53:06.957Z,9.73
2019-05-06T21:56:13.099Z,9.27
2019-05-06T21:59:17.585Z,9.10
2019-05-06T22:02:23.033Z,9.53
2019-05-06T22:05:27.446Z,8.57
2019-05-06T22:08:32.931Z,10.13
2019-05-06T22:11:37.539Z,11.17
2019-05-06T22:14:42.317Z,11.07
2019-05-06T22:17:47.299Z,11.73
2019-05-06T22:21:26.362Z,11.07
2019-05-06T22:24:43.820Z,12.20
2019-05-06T22:27:48.160Z,11.87
2019-05-06T22:30:52.538Z,12.23
2019-05-06T22:33:57.451Z,11.67
2019-05-06T22:37:03.317Z,11.60
2019-05-06T22:40:08.483Z,9.53
2019-05-06T22:43:12.816Z,10.03
2019-05-06T22:46:18.332Z,10.20
2019-05-06T22:49:23.845Z,10.97
2019-05-06T22:52:28.903Z,10.97
2019-05-06T22:55:33.827Z,12.27
2019-05-06T22:58:38.145Z,11.10
2019-05-06T23:02:02.460Z,10.83
2019-05-06T23:05:08.669Z,9.33
2019-05-06T23:08:13.457Z,9.07
2019-05-06T23:11:18.007Z,9.30
2019-05-06T23:14:31.295Z,10.20
2019-05-06T23:17:29.268Z,10.00
2019-05-06T23:20:33.873Z,9.93
2019-05-06T23:23:38.313Z,10.07
2019-05-06T23:26:42.697Z,9.40
2019-05-06T23:29:47.273Z,9.17
2019-05-06T23:32:52.994Z,8.60
2019-05-06T23:35:59.338Z,8.23
2019-05-06T23:39:58.216Z,8.57
2019-05-06T23:43:38.892Z,8.23
2019-05-06T23:47:22.033Z,8.17
2019-05-06T23:51:02.040Z,7.40
2019-05-06T23:54:43.099Z,7.97
2019-05-06T23:57:46.228Z,8.00
